Mechta S — D6A003 — position and weather

sailwx.info

Track history (hours):
 
Tides and Currents Weather Stations Pressure Air Temp Water Temp Dewpoint Dewpoint Depression Visibility Wind Speed Wind Dir Waves Ship Positions

Mechta S

Last reported at 2017-Dec-16 07:46 UTC. Time now 2017-Dec-16 11:17 UTC.
Position N 45°02' E 036°31'.

Length 119 m; draft 4.3 m.

Type: Cargo ship. MMSI: 620000003.

Date/timePositionNaut miles runAvg speedWind from/ knotsBaromVisibWave heightAir tempDewpointWater temp
2017-Dec-16 07:46N 45°02' E 036°31'  
2017-Dec-08 07:13N 45°15' E 036°28'2 6.9
2017-Dec-08 06:57N 45°17' E 036°29'3 6.9
2017-Dec-08 06:30N 45°19' E 036°32'4 7.7
2017-Dec-08 06:01N 45°21' E 036°37'3 6.6
2017-Dec-08 05:30N 45°23' E 036°40'3 6.4
2017-Dec-08 05:01N 45°26' E 036°41'2 3.6
2017-Dec-08 04:26N 45°28' E 036°40'0 0.3
2017-Dec-08 04:00N 45°28' E 036°40'0 0.0
2017-Dec-08 03:27N 45°28' E 036°40'0 0.0
2017-Dec-08 03:00N 45°28' E 036°40'0 0.0
2017-Dec-08 02:27N 45°28' E 036°40'0 0.0
2017-Dec-08 02:00N 45°28' E 036°40'0 0.0
2017-Dec-08 01:30N 45°28' E 036°40'0 0.0
2017-Dec-08 00:57N 45°28' E 036°40'0 0.0
2017-Dec-08 00:30N 45°28' E 036°40'0 0.0
2017-Dec-08 00:00N 45°28' E 036°40'0 0.0
2017-Dec-07 23:30N 45°28' E 036°40'0 0.0
2017-Dec-07 23:00N 45°28' E 036°40'0 0.0
2017-Dec-07 22:30N 45°28' E 036°40'0 0.0
2017-Dec-07 22:00N 45°28' E 036°40'0 0.0
2017-Dec-07 21:30N 45°28' E 036°40'0 0.0
2017-Dec-07 21:00N 45°28' E 036°40'0 0.0
2017-Dec-07 20:27N 45°28' E 036°40'0 0.0
2017-Dec-07 20:00N 45°28' E 036°40'0 0.0
2017-Dec-07 19:30N 45°28' E 036°40'0 0.0
2017-Dec-07 19:00N 45°28' E 036°40'0 0.0
2017-Dec-07 18:30N 45°28' E 036°40'0 0.0
2017-Dec-07 18:00N 45°28' E 036°40'0 0.0
2017-Dec-07 17:30N 45°28' E 036°40'0 0.0
2017-Dec-07 17:00N 45°28' E 036°40'0 0.0
2017-Dec-07 16:30N 45°28' E 036°40'0 0.0
2017-Dec-07 15:57N 45°28' E 036°40'0 0.0
2017-Dec-07 15:30N 45°28' E 036°40'0 0.0
2017-Dec-07 15:00N 45°28' E 036°40'0 0.0
2017-Dec-07 14:30N 45°28' E 036°40'0 0.0
2017-Dec-07 14:00N 45°28' E 036°40'0 0.0
2017-Dec-07 13:30N 45°28' E 036°40'0 0.0
2017-Dec-07 13:00N 45°28' E 036°40'0 0.0
2017-Dec-07 12:30N 45°28' E 036°40'0 0.0
2017-Dec-07 12:00N 45°28' E 036°40'0 0.0
2017-Dec-07 11:28N 45°28' E 036°40'0 0.0
2017-Dec-07 10:58N 45°28' E 036°40'0 0.0
2017-Dec-07 10:25N 45°28' E 036°40'0 0.0
2017-Dec-07 09:58N 45°28' E 036°40'0 0.0
2017-Dec-07 09:28N 45°28' E 036°40'0 0.0
2017-Dec-07 08:58N 45°28' E 036°40'0 0.0
2017-Dec-07 08:28N 45°28' E 036°40'0 0.0
2017-Dec-07 07:58N 45°28' E 036°40'0 0.0
2017-Dec-07 07:28N 45°28' E 036°40'0 0.0
2017-Dec-07 06:58N 45°28' E 036°40'0 0.0
2017-Dec-07 06:28N 45°28' E 036°40'0 0.0
2017-Dec-07 05:58N 45°28' E 036°40'0 0.0
2017-Dec-07 05:28N 45°28' E 036°40'0 0.0
2017-Dec-07 04:58N 45°28' E 036°40'0 0.0
2017-Dec-07 04:28N 45°28' E 036°40'0 0.0
2017-Dec-07 03:55N 45°28' E 036°40'0 0.0
2017-Dec-07 03:28N 45°28' E 036°40'0 0.0
2017-Dec-07 02:58N 45°28' E 036°40'0 0.0
2017-Dec-07 02:28N 45°28' E 036°40'0 0.0
2017-Dec-07 01:58N 45°28' E 036°40'0 0.0
2017-Dec-07 01:28N 45°28' E 036°40'0 0.0
2017-Dec-07 00:55N 45°28' E 036°40'0 0.0
2017-Dec-07 00:28N 45°28' E 036°40'0 0.0
2017-Dec-06 23:58N 45°28' E 036°40'0 0.0
2017-Dec-06 23:25N 45°28' E 036°40'0 0.0
2017-Dec-06 22:58N 45°28' E 036°40'0 0.0
2017-Dec-06 22:28N 45°28' E 036°40'0 0.0
2017-Dec-06 21:58N 45°28' E 036°40'0 0.0
2017-Dec-06 21:28N 45°28' E 036°40'0 0.0
2017-Dec-06 20:58N 45°28' E 036°40'  
Track history (hours):
 
Tides and Currents Weather Stations Pressure Air Temp Water Temp Dewpoint Dewpoint Depression Visibility Wind Speed Wind Dir Waves Ship Positions

Mechta S

Last reported at 2017-Dec-16 07:46 UTC. Time now 2017-Dec-16 11:17 UTC.
Position N 45°02' E 036°31'.

Length 119 m; draft 4.3 m.

Type: Cargo ship. MMSI: 620000003.

Date/timePositionNaut miles runAvg speedWind from/ knotsBaromVisibWave heightAir tempDewpointWater temp
2017-Dec-16 07:46N 45°02' E 036°31'  
2017-Dec-08 07:13N 45°15' E 036°28'2 6.9
2017-Dec-08 06:57N 45°17' E 036°29'3 6.9
2017-Dec-08 06:30N 45°19' E 036°32'4 7.7
2017-Dec-08 06:01N 45°21' E 036°37'3 6.6
2017-Dec-08 05:30N 45°23' E 036°40'3 6.4
2017-Dec-08 05:01N 45°26' E 036°41'2 3.6
2017-Dec-08 04:26N 45°28' E 036°40'0 0.3
2017-Dec-08 04:00N 45°28' E 036°40'0 0.0
2017-Dec-08 03:27N 45°28' E 036°40'0 0.0
2017-Dec-08 03:00N 45°28' E 036°40'0 0.0
2017-Dec-08 02:27N 45°28' E 036°40'0 0.0
2017-Dec-08 02:00N 45°28' E 036°40'0 0.0
2017-Dec-08 01:30N 45°28' E 036°40'0 0.0
2017-Dec-08 00:57N 45°28' E 036°40'0 0.0
2017-Dec-08 00:30N 45°28' E 036°40'0 0.0
2017-Dec-08 00:00N 45°28' E 036°40'0 0.0
2017-Dec-07 23:30N 45°28' E 036°40'0 0.0
2017-Dec-07 23:00N 45°28' E 036°40'0 0.0
2017-Dec-07 22:30N 45°28' E 036°40'0 0.0
2017-Dec-07 22:00N 45°28' E 036°40'0 0.0
2017-Dec-07 21:30N 45°28' E 036°40'0 0.0
2017-Dec-07 21:00N 45°28' E 036°40'0 0.0
2017-Dec-07 20:27N 45°28' E 036°40'0 0.0
2017-Dec-07 20:00N 45°28' E 036°40'0 0.0
2017-Dec-07 19:30N 45°28' E 036°40'0 0.0
2017-Dec-07 19:00N 45°28' E 036°40'0 0.0
2017-Dec-07 18:30N 45°28' E 036°40'0 0.0
2017-Dec-07 18:00N 45°28' E 036°40'0 0.0
2017-Dec-07 17:30N 45°28' E 036°40'0 0.0
2017-Dec-07 17:00N 45°28' E 036°40'0 0.0
2017-Dec-07 16:30N 45°28' E 036°40'0 0.0
2017-Dec-07 15:57N 45°28' E 036°40'0 0.0
2017-Dec-07 15:30N 45°28' E 036°40'0 0.0
2017-Dec-07 15:00N 45°28' E 036°40'0 0.0
2017-Dec-07 14:30N 45°28' E 036°40'0 0.0
2017-Dec-07 14:00N 45°28' E 036°40'0 0.0
2017-Dec-07 13:30N 45°28' E 036°40'0 0.0
2017-Dec-07 13:00N 45°28' E 036°40'0 0.0
2017-Dec-07 12:30N 45°28' E 036°40'0 0.0
2017-Dec-07 12:00N 45°28' E 036°40'0 0.0
2017-Dec-07 11:28N 45°28' E 036°40'0 0.0
2017-Dec-07 10:58N 45°28' E 036°40'0 0.0
2017-Dec-07 10:25N 45°28' E 036°40'0 0.0
2017-Dec-07 09:58N 45°28' E 036°40'0 0.0
2017-Dec-07 09:28N 45°28' E 036°40'0 0.0
2017-Dec-07 08:58N 45°28' E 036°40'0 0.0
2017-Dec-07 08:28N 45°28' E 036°40'0 0.0
2017-Dec-07 07:58N 45°28' E 036°40'0 0.0
2017-Dec-07 07:28N 45°28' E 036°40'0 0.0
2017-Dec-07 06:58N 45°28' E 036°40'0 0.0
2017-Dec-07 06:28N 45°28' E 036°40'0 0.0
2017-Dec-07 05:58N 45°28' E 036°40'0 0.0
2017-Dec-07 05:28N 45°28' E 036°40'0 0.0
2017-Dec-07 04:58N 45°28' E 036°40'0 0.0
2017-Dec-07 04:28N 45°28' E 036°40'0 0.0
2017-Dec-07 03:55N 45°28' E 036°40'0 0.0
2017-Dec-07 03:28N 45°28' E 036°40'0 0.0
2017-Dec-07 02:58N 45°28' E 036°40'0 0.0
2017-Dec-07 02:28N 45°28' E 036°40'0 0.0
2017-Dec-07 01:58N 45°28' E 036°40'0 0.0
2017-Dec-07 01:28N 45°28' E 036°40'0 0.0
2017-Dec-07 00:55N 45°28' E 036°40'0 0.0
2017-Dec-07 00:28N 45°28' E 036°40'0 0.0
2017-Dec-06 23:58N 45°28' E 036°40'0 0.0
2017-Dec-06 23:25N 45°28' E 036°40'0 0.0
2017-Dec-06 22:58N 45°28' E 036°40'0 0.0
2017-Dec-06 22:28N 45°28' E 036°40'0 0.0
2017-Dec-06 21:58N 45°28' E 036°40'0 0.0
2017-Dec-06 21:28N 45°28' E 036°40'0 0.0
2017-Dec-06 20:58N 45°28' E 036°40'  

Dump ship's entire track history